Time;durP1;ratioP1;P1;durP2;ratioP2;P2;SDS_P1;SDS_P2;PMS_P1;PMS_P2;Temp;Humidity;BMP_temperature;BMP_pressure;BME280_temperature;BME280_humidity;BME280_pressure;Samples;Min_cycle;Max_cycle;Signal;HPM_P1;HPM_P2
2023/04/06 00:01:10;;;;;;;51.67;14.73;;;0.10;94.60;;;;;;5054990;28;20222;-71
2023/04/06 00:03:36;;;;;;;10.20;5.90;;;0.10;94.20;;;;;;5054067;28;20216;-72
2023/04/06 00:06:02;;;;;;;8.17;5.07;;;0.00;94.20;;;;;;5053753;28;20195;-71
2023/04/06 00:08:28;;;;;;;8.13;4.80;;;0.00;94.40;;;;;;5054961;28;20216;-71
2023/04/06 00:10:54;;;;;;;7.63;4.80;;;0.10;94.20;;;;;;5054961;28;20232;-71
2023/04/06 00:13:19;;;;;;;12.37;6.73;;;0.00;94.20;;;;;;5053850;28;20178;-71
2023/04/06 00:15:45;;;;;;;9.27;5.40;;;-0.10;94.20;;;;;;5053762;28;20182;-71
2023/04/06 00:18:11;;;;;;;9.43;6.67;;;-0.10;94.20;;;;;;5053848;28;20698;-72
2023/04/06 00:20:36;;;;;;;6.17;4.80;;;0.00;94.10;;;;;;5053662;28;20216;-71
2023/04/06 00:23:02;;;;;;;7.00;4.73;;;-0.10;94.20;;;;;;5053487;28;20542;-71
2023/04/06 00:25:28;;;;;;;10.20;4.77;;;-0.10;94.50;;;;;;5053113;28;20308;-71
2023/04/06 00:27:53;;;;;;;5.63;4.40;;;0.00;94.70;;;;;;5053110;28;20181;-71
2023/04/06 00:30:19;;;;;;;5.63;4.50;;;0.10;94.70;;;;;;5053453;28;20179;-71
2023/04/06 00:32:44;;;;;;;5.27;4.50;;;0.10;94.50;;;;;;5053258;28;20174;-71
2023/04/06 00:35:10;;;;;;;5.53;4.93;;;0.00;94.50;;;;;;5053454;28;20212;-71
2023/04/06 00:37:36;;;;;;;5.27;4.70;;;0.00;94.70;;;;;;5054068;28;20224;-71
2023/04/06 00:40:02;;;;;;;7.27;5.30;;;0.00;94.90;;;;;;5054264;28;20333;-71
2023/04/06 00:42:28;;;;;;;6.90;4.30;;;0.10;95.20;;;;;;5054023;28;20174;-71
2023/04/06 00:44:58;;;;;;;6.00;4.27;;;0.10;94.60;;;;;;5054049;28;20232;-71
2023/04/06 00:47:25;;;;;;;5.73;4.83;;;0.00;94.20;;;;;;5053894;28;20217;-71
2023/04/06 00:49:51;;;;;;;6.87;4.87;;;0.10;94.10;;;;;;5054526;28;20182;-71
2023/04/06 00:52:18;;;;;;;6.70;5.03;;;0.00;94.20;;;;;;5054776;28;20183;-72
2023/04/06 00:54:43;;;;;;;6.30;4.93;;;-0.10;94.40;;;;;;5052852;28;20273;-72
2023/04/06 00:57:10;;;;;;;6.70;4.83;;;-0.30;94.60;;;;;;5053082;28;20293;-72
2023/04/06 00:59:36;;;;;;;5.33;4.30;;;-0.30;95.00;;;;;;5053839;28;20289;-72
2023/04/06 01:18:28;;;;;;;5.20;4.70;;;-0.50;95.70;;;;;;5187244;22;20243;-72
2023/04/06 02:46:09;;;;;;;6.70;5.90;;;-1.10;97.50;;;;;;5613394;22;20325;-72
2023/04/06 03:17:50;;;;;;;6.97;5.87;;;-1.20;97.50;;;;;;5176547;22;20245;-93
2023/04/06 03:20:16;;;;;;;8.50;6.37;;;-1.30;97.50;;;;;;5043782;28;20206;-93
2023/04/06 03:22:41;;;;;;;10.27;6.70;;;-1.40;97.60;;;;;;5043697;28;20274;-93
2023/04/06 03:25:07;;;;;;;10.83;5.97;;;-1.50;98.00;;;;;;5042620;28;20189;-93
2023/04/06 03:27:33;;;;;;;10.33;9.20;;;-1.50;98.00;;;;;;5043059;28;20249;-93
2023/04/06 03:29:59;;;;;;;11.70;6.20;;;-1.50;98.00;;;;;;5043726;28;20188;-93
2023/04/06 03:32:24;;;;;;;7.47;5.83;;;-1.60;98.00;;;;;;5042910;28;20182;-93
2023/04/06 03:34:50;;;;;;;6.77;5.97;;;-1.60;98.30;;;;;;5042806;28;20182;-93
2023/04/06 03:37:16;;;;;;;7.57;5.70;;;-1.60;98.30;;;;;;5043347;28;20298;-93
2023/04/06 03:39:41;;;;;;;11.27;6.40;;;-1.50;98.20;;;;;;5061094;28;20189;-94
2023/04/06 03:42:07;;;;;;;7.97;6.63;;;-1.50;98.00;;;;;;5043192;28;20182;-93
2023/04/06 03:44:33;;;;;;;7.50;6.17;;;-1.60;98.10;;;;;;5042709;28;20177;-93
2023/04/06 03:46:58;;;;;;;10.03;6.03;;;-1.60;98.10;;;;;;5043431;28;20293;-93
2023/04/06 03:49:24;;;;;;;7.87;6.57;;;-1.70;98.20;;;;;;5043423;28;20178;-93
2023/04/06 03:51:50;;;;;;;7.23;6.30;;;-1.80;98.40;;;;;;5042754;28;20269;-93
2023/04/06 03:54:15;;;;;;;8.07;6.63;;;-1.80;98.80;;;;;;5043432;28;20209;-93
2023/04/06 03:56:41;;;;;;;9.70;6.80;;;-1.80;99.00;;;;;;5043090;28;20217;-93
2023/04/06 03:59:07;;;;;;;8.43;7.03;;;-1.80;99.10;;;;;;5042795;28;20181;-93
2023/04/06 04:01:32;;;;;;;17.60;12.53;;;-1.70;99.10;;;;;;5042021;28;20202;-93
2023/04/06 04:03:58;;;;;;;13.27;9.40;;;-1.70;98.70;;;;;;5042180;28;20201;-93
2023/04/06 04:06:24;;;;;;;16.53;11.10;;;-1.70;98.40;;;;;;5050045;28;20201;-93
2023/04/06 04:08:50;;;;;;;18.73;11.23;;;-1.70;98.50;;;;;;5062070;28;20241;-93
2023/04/06 04:11:16;;;;;;;16.53;11.80;;;-1.60;98.60;;;;;;5061616;28;20602;-93
2023/04/06 04:13:42;;;;;;;14.00;10.93;;;-1.60;98.70;;;;;;5062637;28;20177;-93
2023/04/06 04:19:30;;;;;;;18.43;10.70;;;-1.60;98.50;;;;;;5023491;28;20183;-93
2023/04/06 04:21:56;;;;;;;13.83;8.67;;;-1.60;98.60;;;;;;5062828;28;20228;-93
2023/04/06 04:24:21;;;;;;;16.53;7.67;;;-1.60;98.70;;;;;;5065030;28;20169;-93
2023/04/06 04:26:47;;;;;;;10.53;7.57;;;-1.70;98.70;;;;;;5064214;28;20237;-93
2023/04/06 04:29:28;;;;;;;17.47;7.33;;;-1.60;98.90;;;;;;5065285;28;20184;-94
2023/04/06 04:31:54;;;;;;;12.53;7.33;;;-1.60;98.90;;;;;;5048469;28;20197;-93
2023/04/06 04:34:20;;;;;;;11.23;7.60;;;-1.80;98.80;;;;;;5059566;28;20181;-93
2023/04/06 04:36:46;;;;;;;9.10;7.43;;;-1.80;98.80;;;;;;5042680;28;20509;-93
2023/04/06 04:39:12;;;;;;;15.63;8.03;;;-1.90;99.00;;;;;;5049003;28;20286;-93
2023/04/06 04:41:40;;;;;;;12.83;7.97;;;-1.80;99.20;;;;;;5047662;28;20206;-93
2023/04/06 04:44:06;;;;;;;14.07;7.70;;;-1.80;99.10;;;;;;5045040;28;20179;-93
2023/04/06 04:46:32;;;;;;;17.93;8.40;;;-1.80;98.90;;;;;;5042717;28;20228;-93
2023/04/06 04:48:58;;;;;;;17.10;11.87;;;-1.80;98.70;;;;;;5052863;28;20185;-93
2023/04/06 04:51:24;;;;;;;19.87;12.87;;;-1.70;98.70;;;;;;5064077;28;20192;-93
2023/04/06 04:53:50;;;;;;;19.93;11.20;;;-1.60;98.80;;;;;;5059727;28;20185;-93
2023/04/06 04:56:16;;;;;;;16.63;10.67;;;-1.60;98.80;;;;;;5059221;28;20212;-93
2023/04/06 04:58:56;;;;;;;22.13;13.57;;;-1.70;98.30;;;;;;5078124;28;20249;-92
2023/04/06 05:01:21;;;;;;;34.97;18.63;;;-1.70;98.30;;;;;;5059021;28;20208;-93
2023/04/06 05:03:54;;;;;;;25.33;15.40;;;-1.60;98.20;;;;;;5060526;28;20192;-93
2023/04/06 05:06:40;;;;;;;20.60;13.57;;;-1.60;98.30;;;;;;5067310;28;20202;-93
2023/04/06 05:09:59;;;;;;;24.13;14.63;;;-1.70;98.30;;;;;;5071302;28;20183;-94
2023/04/06 05:12:27;;;;;;;51.83;19.07;;;-1.60;98.80;;;;;;5070869;28;20268;-93
2023/04/06 05:15:19;;;;;;;30.67;15.77;;;-1.60;98.50;;;;;;5071496;28;20177;-93
2023/04/06 05:17:56;;;;;;;27.80;11.07;;;-1.50;98.60;;;;;;4971177;28;20205;-93
2023/04/06 05:20:23;;;;;;;25.00;11.77;;;-1.40;98.50;;;;;;5065671;28;20232;-93
2023/04/06 05:23:13;;;;;;;33.97;12.50;;;-1.40;98.30;;;;;;5072633;28;20197;-93
2023/04/06 06:05:08;;;;;;;;;;;;;;;;;;;;;
2023/04/06 06:19:02;;;;;;;;;;;;;;;;;;;;;
2023/04/06 07:21:10;;;;;;;;;;;;;;;;;;;;;
2023/04/06 07:38:08;;;;;;;14.60;7.63;;;3.70;92.50;;;;;;4936072;29;20253;-71
2023/04/06 07:41:23;;;;;;;13.10;8.30;;;3.90;93.50;;;;;;4985011;28;20603;-71
2023/04/06 08:08:28;;;;;;;;;;;;;;;;;;;;;
2023/04/06 08:25:11;;;;;;;10.05;6.90;;;5.80;90.50;;;;;;4992650;28;20290;-71
2023/04/06 08:32:17;;;;;;;11.07;6.60;;;6.10;89.80;;;;;;4981612;28;20635;-71
2023/04/06 08:49:23;;;;;;;14.68;6.60;;;6.30;83.10;;;;;;4954301;29;20169;-71
2023/04/06 09:20:41;;;;;;;11.27;6.70;;;7.90;76.30;;;;;;4823035;29;20173;-71
2023/04/06 09:41:03;;;;;;;60.25;12.57;;;8.20;74.60;;;;;;4972415;28;20196;-72
2023/04/06 09:44:25;;;;;;;;;;;;;;;;;;;;;
2023/04/06 09:47:45;;;;;;;;;;;;;;;;;;;;;
2023/04/06 09:54:02;;;;;;;24.63;9.30;;;8.80;75.90;;;;;;5011650;28;20194;-72
2023/04/06 09:56:33;;;;;;;9.40;7.15;;;9.00;75.60;;;;;;5011786;28;20222;-74
2023/04/06 09:59:04;;;;;;;9.20;8.02;;;9.00;74.10;;;;;;5053928;28;20187;-73
2023/04/06 10:01:33;;;;;;;10.90;7.57;;;9.00;71.70;;;;;;5035768;28;20202;-73
2023/04/06 10:04:25;;;;;;;15.13;7.70;;;9.00;71.90;;;;;;5035867;28;20174;-73
2023/04/06 10:06:52;;;;;;;12.93;8.13;;;9.10;74.30;;;;;;5036930;28;20193;-74
2023/04/06 10:09:23;;;;;;;12.18;7.90;;;9.20;71.20;;;;;;5040845;28;20175;-74
2023/04/06 10:11:50;;;;;;;10.93;8.32;;;9.20;71.60;;;;;;5039921;28;20268;-72
2023/04/06 10:14:16;;;;;;;8.90;7.93;;;9.30;70.70;;;;;;5039722;28;20185;-72
2023/04/06 10:16:42;;;;;;;10.13;8.15;;;9.30;69.80;;;;;;5056415;28;20202;-72
2023/04/06 10:19:24;;;;;;;14.57;8.15;;;9.40;72.00;;;;;;5056491;28;20166;-72
2023/04/06 10:21:53;;;;;;;20.45;8.90;;;9.40;70.40;;;;;;5057356;28;20268;-72
2023/04/06 10:24:18;;;;;;;266.42;31.42;;;9.50;71.60;;;;;;5057326;28;20262;-72
2023/04/06 10:26:57;;;;;;;131.23;19.48;;;9.50;68.30;;;;;;5057402;28;20226;-72
2023/04/06 10:29:24;;;;;;;19.88;9.20;;;9.50;68.60;;;;;;5057602;28;20169;-72
2023/04/06 10:31:49;;;;;;;16.13;8.48;;;9.40;67.70;;;;;;5057863;28;20224;-72
2023/04/06 10:34:15;;;;;;;32.97;10.63;;;9.40;69.60;;;;;;5057891;28;20178;-73
2023/04/06 10:36:41;;;;;;;36.92;11.70;;;9.50;71.40;;;;;;5058008;28;20212;-72
2023/04/06 10:39:06;;;;;;;201.45;92.20;;;9.60;70.30;;;;;;5060670;28;20204;-72
2023/04/06 10:41:41;;;;;;;174.43;87.72;;;9.70;68.80;;;;;;5060486;28;20209;-72
2023/04/06 10:44:06;;;;;;;49.67;27.10;;;9.80;66.40;;;;;;5038235;28;20189;-72
2023/04/06 10:46:33;;;;;;;280.27;144.63;;;9.90;65.00;;;;;;5038343;28;20197;-72
2023/04/06 10:52:20;;;;;;;45.20;31.25;;;10.00;65.10;;;;;;5056537;28;20640;-74
2023/04/06 10:54:46;;;;;;;27.40;17.10;;;10.00;64.90;;;;;;5038626;28;20171;-73
2023/04/06 10:57:12;;;;;;;17.20;11.77;;;10.10;68.90;;;;;;5055673;28;20190;-73
2023/04/06 10:59:43;;;;;;;59.92;33.88;;;10.20;66.40;;;;;;5057484;28;20170;-73
2023/04/06 11:02:08;;;;;;;14.57;13.15;;;10.10;66.00;;;;;;5039006;28;20225;-74
2023/04/06 11:04:34;;;;;;;10.60;8.73;;;10.30;64.40;;;;;;5039832;28;20628;-73
2023/04/06 11:07:00;;;;;;;22.52;11.82;;;10.30;63.10;;;;;;5048813;28;20205;-72
2023/04/06 11:09:27;;;;;;;13.00;10.75;;;10.40;67.70;;;;;;5043769;28;20170;-72
2023/04/06 11:12:25;;;;;;;56.78;33.95;;;10.50;66.10;;;;;;5058292;28;20227;-75
2023/04/06 11:15:04;;;;;;;26.58;19.30;;;10.60;67.20;;;;;;5059334;28;20173;-74
2023/04/06 11:17:30;;;;;;;10.68;9.57;;;10.60;64.90;;;;;;5058236;28;20205;-73
2023/04/06 11:19:57;;;;;;;20.63;17.58;;;10.60;62.20;;;;;;5055936;28;20549;-72
2023/04/06 11:22:24;;;;;;;20.40;13.15;;;10.60;63.20;;;;;;5057742;28;20180;-72
2023/04/06 11:24:49;;;;;;;13.65;10.68;;;10.60;63.10;;;;;;5059148;28;20178;-72
2023/04/06 11:27:16;;;;;;;11.40;9.43;;;10.60;64.30;;;;;;5075960;28;20695;-72
2023/04/06 11:29:42;;;;;;;10.57;9.02;;;10.70;65.00;;;;;;5076700;28;20174;-72
2023/04/06 11:32:08;;;;;;;13.38;12.02;;;10.70;64.60;;;;;;5076490;28;20540;-72
2023/04/06 11:34:39;;;;;;;11.77;9.05;;;10.60;61.80;;;;;;5058603;28;20184;-73
2023/04/06 11:37:10;;;;;;;12.70;11.40;;;10.60;62.50;;;;;;5058635;28;20691;-73
2023/04/06 11:39:42;;;;;;;17.35;11.95;;;10.60;62.40;;;;;;5077052;28;20166;-73
2023/04/06 11:42:08;;;;;;;11.75;9.77;;;10.50;63.20;;;;;;5058619;28;20675;-73
2023/04/06 11:44:38;;;;;;;11.20;9.57;;;10.30;64.20;;;;;;5059221;28;20184;-73
2023/04/06 11:47:09;;;;;;;11.48;8.75;;;10.20;63.50;;;;;;5059063;28;20251;-72
2023/04/06 11:49:39;;;;;;;11.25;9.82;;;10.10;63.50;;;;;;5059168;28;20235;-72
2023/04/06 11:52:15;;;;;;;9.98;8.80;;;9.90;63.40;;;;;;5076483;28;20698;-72
2023/04/06 11:54:41;;;;;;;20.63;15.55;;;10.10;62.30;;;;;;5058425;28;20180;-74
2023/04/06 11:57:08;;;;;;;12.85;10.15;;;10.40;61.70;;;;;;5076639;28;20281;-73
2023/04/06 11:59:34;;;;;;;12.00;9.50;;;10.60;61.60;;;;;;5058965;28;20208;-74
2023/04/06 12:02:02;;;;;;;14.30;10.18;;;10.80;62.00;;;;;;5059213;28;20208;-74
2023/04/06 12:08:05;;;;;;;12.40;10.25;;;11.10;61.80;;;;;;5076073;28;20248;-74
2023/04/06 12:10:31;;;;;;;18.67;10.73;;;11.20;62.00;;;;;;5058014;28;20216;-74
2023/04/06 12:12:57;;;;;;;16.17;10.32;;;11.30;60.70;;;;;;5058469;28;20235;-74
2023/04/06 12:15:22;;;;;;;41.47;12.52;;;11.30;58.30;;;;;;5057793;28;20216;-74
2023/04/06 12:17:49;;;;;;;51.95;11.60;;;11.30;57.20;;;;;;5057920;28;20181;-73
2023/04/06 12:20:15;;;;;;;35.92;10.15;;;11.40;59.10;;;;;;5057786;28;20215;-74
2023/04/06 12:22:40;;;;;;;11.73;9.63;;;11.70;61.20;;;;;;5057929;28;20272;-74
2023/04/06 12:25:06;;;;;;;14.60;10.27;;;11.70;57.10;;;;;;5058231;28;20173;-74
2023/04/06 12:27:32;;;;;;;13.82;10.77;;;11.50;57.90;;;;;;5057725;28;20209;-73
2023/04/06 12:29:58;;;;;;;14.30;10.07;;;11.30;58.50;;;;;;5058136;28;20182;-74
2023/04/06 12:32:24;;;;;;;14.15;10.80;;;11.30;58.90;;;;;;5075031;28;20529;-74
2023/04/06 12:34:52;;;;;;;15.57;10.38;;;11.40;60.70;;;;;;5058845;28;20533;-73
2023/04/06 12:37:17;;;;;;;16.40;10.73;;;11.40;60.50;;;;;;5057544;28;20201;-72
2023/04/06 12:39:45;;;;;;;21.33;11.30;;;11.40;58.90;;;;;;5057544;28;20170;-74
2023/04/06 12:42:12;;;;;;;16.80;9.93;;;11.50;60.60;;;;;;5057362;28;20755;-74
2023/04/06 12:44:38;;;;;;;17.92;10.25;;;11.60;58.10;;;;;;5058064;28;20300;-74
2023/04/06 12:47:04;;;;;;;14.52;10.05;;;11.60;58.20;;;;;;5056880;28;20227;-74
2023/04/06 12:49:30;;;;;;;20.27;9.88;;;11.70;57.30;;;;;;5056843;28;20185;-74
2023/04/06 12:51:55;;;;;;;11.25;9.82;;;11.70;57.50;;;;;;5056668;28;20715;-74
2023/04/06 12:54:21;;;;;;;10.65;9.55;;;11.70;56.70;;;;;;5056471;28;20213;-73
2023/04/06 12:56:47;;;;;;;10.70;9.60;;;11.60;56.90;;;;;;5056940;28;20225;-73
2023/04/06 12:59:12;;;;;;;13.57;9.25;;;11.60;58.80;;;;;;5056977;28;20182;-73
2023/04/06 13:01:38;;;;;;;14.48;8.65;;;11.80;58.30;;;;;;5056355;28;20583;-73
2023/04/06 13:04:03;;;;;;;17.15;9.73;;;11.80;57.00;;;;;;5056653;28;20200;-73
2023/04/06 13:06:30;;;;;;;12.00;9.38;;;11.80;57.40;;;;;;5056391;28;20268;-73
2023/04/06 13:08:55;;;;;;;12.80;9.82;;;11.70;56.10;;;;;;5056676;28;20176;-73
2023/04/06 13:11:23;;;;;;;14.18;9.43;;;11.80;59.00;;;;;;5075074;28;20173;-73
2023/04/06 13:13:49;;;;;;;10.40;8.90;;;11.90;58.30;;;;;;5057149;28;20186;-73
2023/04/06 13:16:15;;;;;;;16.92;9.13;;;11.90;56.50;;;;;;5057785;28;20205;-73
2023/04/06 13:18:40;;;;;;;19.65;9.15;;;11.90;56.90;;;;;;5057096;28;20555;-73
2023/04/06 13:21:07;;;;;;;11.40;8.93;;;12.00;57.20;;;;;;5057486;28;20202;-73
2023/04/06 13:23:33;;;;;;;10.75;8.73;;;12.00;55.70;;;;;;5057165;28;20177;-74
2023/04/06 13:26:04;;;;;;;14.00;7.30;;;12.00;54.60;;;;;;5057290;28;20292;-74
2023/04/06 13:28:31;;;;;;;12.88;7.25;;;12.00;55.30;;;;;;5056966;28;20184;-74
2023/04/06 13:31:00;;;;;;;8.70;7.63;;;12.10;55.30;;;;;;5057069;28;20227;-74
2023/04/06 13:33:26;;;;;;;13.70;8.45;;;12.10;55.30;;;;;;5057308;28;20178;-74
2023/04/06 13:35:51;;;;;;;9.38;8.27;;;12.10;55.10;;;;;;5074912;28;20197;-73
2023/04/06 13:38:17;;;;;;;9.80;8.65;;;12.10;56.40;;;;;;5075131;28;20306;-73
2023/04/06 13:40:43;;;;;;;9.25;7.72;;;12.00;54.90;;;;;;5056893;28;20207;-73
2023/04/06 13:43:08;;;;;;;10.60;8.40;;;12.00;55.00;;;;;;5055384;28;20194;-73
2023/04/06 13:45:34;;;;;;;9.52;8.30;;;11.90;55.10;;;;;;5036748;28;20177;-73
2023/04/06 13:48:00;;;;;;;26.10;9.35;;;11.80;55.70;;;;;;5038474;28;20613;-73
2023/04/06 13:50:28;;;;;;;17.77;8.77;;;11.80;56.50;;;;;;5037418;28;20217;-73
2023/04/06 13:52:54;;;;;;;24.17;7.97;;;11.50;56.50;;;;;;5035511;28;20269;-73
2023/04/06 13:55:20;;;;;;;9.75;7.43;;;11.50;56.50;;;;;;5035775;28;20217;-73
2023/04/06 13:57:45;;;;;;;20.38;8.52;;;11.60;55.00;;;;;;5035362;28;20233;-74
2023/04/06 14:00:12;;;;;;;17.60;8.90;;;11.60;55.50;;;;;;5062871;28;20182;-72
2023/04/06 14:02:39;;;;;;;10.20;7.57;;;11.70;55.70;;;;;;5056831;28;20177;-73
2023/04/06 14:05:05;;;;;;;16.17;8.10;;;11.60;55.20;;;;;;5060758;28;20659;-73
2023/04/06 14:07:33;;;;;;;12.93;7.95;;;11.60;55.20;;;;;;5076438;28;20194;-73
2023/04/06 14:09:59;;;;;;;12.80;7.75;;;11.60;55.60;;;;;;5077240;28;20219;-73
2023/04/06 14:12:26;;;;;;;8.05;7.32;;;11.60;56.00;;;;;;5059945;28;20606;-74
2023/04/06 14:14:52;;;;;;;7.93;7.22;;;11.70;57.00;;;;;;5059951;28;20588;-72
2023/04/06 14:17:18;;;;;;;10.98;7.63;;;11.70;55.90;;;;;;5058264;28;20208;-73
2023/04/06 14:20:16;;;;;;;10.60;8.05;;;11.60;55.40;;;;;;5056954;28;20178;-76
2023/04/06 14:22:42;;;;;;;11.30;7.93;;;11.70;57.20;;;;;;5055961;28;20693;-73
2023/04/06 14:25:12;;;;;;;10.35;8.55;;;11.70;57.00;;;;;;5052929;28;20190;-73
2023/04/06 14:27:42;;;;;;;12.65;8.10;;;11.70;56.80;;;;;;5048057;28;20201;-73
2023/04/06 14:30:11;;;;;;;14.95;8.20;;;11.70;57.50;;;;;;5044570;28;20178;-73
2023/04/06 14:32:37;;;;;;;11.60;8.35;;;11.80;58.50;;;;;;5036321;28;20179;-73
2023/04/06 14:35:04;;;;;;;10.02;8.27;;;11.70;57.40;;;;;;5055976;28;20266;-73
2023/04/06 14:37:30;;;;;;;8.57;7.68;;;11.70;57.30;;;;;;5042397;28;20214;-73
2023/04/06 14:39:55;;;;;;;10.82;8.25;;;11.70;56.30;;;;;;5058157;28;20296;-73
2023/04/06 14:42:24;;;;;;;15.27;8.38;;;11.60;57.70;;;;;;5056366;28;20231;-74
2023/04/06 14:44:50;;;;;;;15.30;8.48;;;11.60;57.50;;;;;;5054883;28;20252;-72
2023/04/06 14:47:20;;;;;;;9.85;8.52;;;11.60;58.30;;;;;;5055546;28;20198;-73
2023/04/06 14:49:47;;;;;;;8.35;7.55;;;11.60;57.00;;;;;;5055938;28;20170;-72
2023/04/06 14:53:05;;;;;;;11.00;8.05;;;11.50;56.20;;;;;;5055032;28;20185;-72
2023/04/06 14:55:31;;;;;;;9.05;8.18;;;11.60;57.70;;;;;;5057297;28;20227;-72
2023/04/06 14:57:56;;;;;;;11.88;8.57;;;11.50;56.20;;;;;;5059320;28;20185;-73
2023/04/06 15:00:22;;;;;;;9.88;8.82;;;11.40;56.20;;;;;;5058193;28;20211;-73
2023/04/06 15:02:54;;;;;;;12.60;9.13;;;11.30;56.10;;;;;;5058838;28;20181;-74
2023/04/06 15:05:20;;;;;;;12.13;9.25;;;11.20;56.40;;;;;;5059447;28;20173;-80
2023/04/06 15:07:45;;;;;;;11.88;8.75;;;11.10;57.80;;;;;;5058820;28;20189;-73
2023/04/06 15:10:11;;;;;;;11.18;8.32;;;11.20;58.30;;;;;;5058015;28;20201;-72
2023/04/06 15:12:37;;;;;;;12.80;9.18;;;11.20;58.70;;;;;;5076047;28;20170;-72
2023/04/06 15:15:04;;;;;;;10.30;9.20;;;11.20;58.80;;;;;;5058330;28;20261;-72
2023/04/06 15:17:30;;;;;;;9.02;8.13;;;11.10;57.90;;;;;;5057742;28;20194;-72
2023/04/06 15:19:55;;;;;;;9.13;8.18;;;11.20;59.20;;;;;;5058725;28;20174;-72
2023/04/06 15:22:21;;;;;;;11.68;8.48;;;11.10;59.10;;;;;;5057775;28;20205;-72
2023/04/06 15:24:47;;;;;;;9.70;8.25;;;11.10;60.00;;;;;;5057719;28;20174;-72
2023/04/06 15:27:12;;;;;;;12.73;8.48;;;11.10;57.70;;;;;;5057953;28;20194;-71
2023/04/06 15:29:38;;;;;;;10.70;8.68;;;11.10;57.90;;;;;;5057675;28;20183;-71
2023/04/06 15:32:03;;;;;;;11.15;8.32;;;11.00;57.80;;;;;;5057628;28;20647;-71
2023/04/06 15:35:23;;;;;;;10.88;8.13;;;10.90;57.70;;;;;;5057797;28;20643;-72
2023/04/06 15:37:49;;;;;;;13.45;8.80;;;10.80;58.20;;;;;;5057491;28;20201;-72
2023/04/06 15:40:15;;;;;;;8.77;7.60;;;10.80;59.70;;;;;;5057315;28;20177;-72
2023/04/06 15:42:42;;;;;;;9.85;7.78;;;10.70;59.20;;;;;;5057275;28;20204;-72
2023/04/06 15:45:10;;;;;;;9.48;7.20;;;10.70;59.50;;;;;;5057340;28;20177;-72
2023/04/06 15:47:36;;;;;;;14.82;7.47;;;10.70;59.40;;;;;;5075303;28;20197;-72
2023/04/06 15:50:02;;;;;;;8.63;7.72;;;10.70;58.50;;;;;;5057553;28;20178;-72
2023/04/06 15:52:28;;;;;;;8.85;7.57;;;10.60;57.30;;;;;;5057703;28;20177;-72
2023/04/06 15:54:53;;;;;;;10.23;8.20;;;10.60;58.80;;;;;;5057469;28;20636;-72
2023/04/06 15:57:19;;;;;;;11.82;7.93;;;10.50;61.10;;;;;;5057436;28;20311;-72
2023/04/06 15:59:44;;;;;;;9.65;8.38;;;10.50;59.90;;;;;;5057099;28;20189;-72
2023/04/06 16:02:10;;;;;;;10.05;8.07;;;10.50;60.10;;;;;;5057206;28;20212;-72
2023/04/06 16:04:35;;;;;;;10.88;7.97;;;10.40;60.50;;;;;;5056836;28;20182;-72
2023/04/06 16:07:01;;;;;;;10.32;8.10;;;10.30;61.30;;;;;;5056773;28;20201;-72
2023/04/06 16:09:26;;;;;;;15.88;8.35;;;10.30;60.90;;;;;;5056911;28;20174;-72
2023/04/06 16:11:52;;;;;;;10.10;8.13;;;10.20;61.20;;;;;;5056862;28;20184;-72
2023/04/06 16:14:18;;;;;;;9.50;8.10;;;10.20;62.50;;;;;;5057006;28;20177;-72
2023/04/06 16:16:43;;;;;;;10.45;8.50;;;10.20;63.70;;;;;;5074308;28;20223;-72
2023/04/06 16:19:09;;;;;;;16.23;8.38;;;10.20;63.20;;;;;;5057635;28;20226;-72
2023/04/06 16:24:56;;;;;;;14.77;8.20;;;10.20;62.50;;;;;;5074724;28;20185;-72
2023/04/06 16:27:22;;;;;;;33.00;9.25;;;10.30;62.30;;;;;;5057335;28;20217;-73
2023/04/06 16:29:47;;;;;;;21.80;8.38;;;10.30;62.70;;;;;;5074734;28;20184;-72
2023/04/06 16:32:13;;;;;;;15.55;8.02;;;10.40;63.40;;;;;;5056778;28;20299;-72
2023/04/06 16:34:39;;;;;;;10.57;8.40;;;10.40;63.50;;;;;;5056354;28;20196;-72
2023/04/06 16:37:05;;;;;;;15.73;9.10;;;10.30;62.60;;;;;;5074521;28;20215;-72
2023/04/06 16:39:30;;;;;;;17.05;9.73;;;10.30;63.40;;;;;;5074449;28;20255;-72
2023/04/06 16:41:56;;;;;;;13.18;8.57;;;10.20;62.80;;;;;;5056580;28;20526;-72
2023/04/06 16:44:22;;;;;;;11.93;9.25;;;10.10;63.00;;;;;;5056722;28;20194;-72
2023/04/06 16:50:10;;;;;;;20.88;10.02;;;10.00;63.40;;;;;;5061072;28;20184;-72
2023/04/06 16:52:36;;;;;;;10.63;8.25;;;9.90;65.70;;;;;;5055899;28;20268;-72
2023/04/06 16:55:01;;;;;;;13.00;9.20;;;9.80;64.70;;;;;;5055682;28;20180;-74
2023/04/06 16:57:40;;;;;;;16.58;9.60;;;9.70;65.00;;;;;;5056163;28;20201;-72
2023/04/06 17:00:07;;;;;;;11.98;9.00;;;9.70;65.60;;;;;;5073704;28;20166;-72
2023/04/06 17:02:47;;;;;;;13.05;8.80;;;9.60;66.10;;;;;;5054819;28;20177;-72
2023/04/06 17:05:13;;;;;;;14.38;9.25;;;9.60;66.90;;;;;;5056041;28;20184;-72
2023/04/06 17:07:39;;;;;;;12.57;8.23;;;9.50;67.50;;;;;;5056091;28;20291;-72
2023/04/06 17:13:26;;;;;;;24.73;9.63;;;9.40;67.00;;;;;;5074081;28;20156;-72
2023/04/06 17:15:52;;;;;;;22.45;9.25;;;9.30;68.10;;;;;;5056161;28;20193;-72
2023/04/06 17:19:13;;;;;;;16.58;9.38;;;9.10;68.90;;;;;;5053384;28;20532;-72
2023/04/06 17:21:40;;;;;;;14.27;9.27;;;9.00;70.10;;;;;;5069021;28;20264;-72
2023/04/06 17:24:07;;;;;;;12.55;8.90;;;8.80;70.70;;;;;;5054216;28;20182;-72
2023/04/06 17:26:33;;;;;;;12.93;9.38;;;8.70;71.50;;;;;;5055557;28;20280;-72
2023/04/06 17:28:59;;;;;;;21.63;9.63;;;8.60;71.60;;;;;;5073288;28;20173;-72
2023/04/06 17:31:36;;;;;;;18.95;9.70;;;8.50;71.80;;;;;;5067802;28;20185;-72
2023/04/06 17:37:37;;;;;;;25.20;9.27;;;8.30;71.50;;;;;;5073596;28;20691;-72
2023/04/06 17:40:05;;;;;;;32.80;9.60;;;8.10;71.20;;;;;;5054662;28;20219;-72
2023/04/06 17:42:31;;;;;;;24.88;9.90;;;8.10;71.60;;;;;;5055789;28;20207;-72
2023/04/06 17:45:20;;;;;;;21.52;9.00;;;8.00;72.10;;;;;;5073546;28;20559;-72
2023/04/06 17:47:46;;;;;;;26.52;10.45;;;7.90;70.90;;;;;;5055659;28;20193;-73
2023/04/06 17:50:11;;;;;;;45.10;21.38;;;7.80;71.20;;;;;;5054183;28;20215;-72
2023/04/06 17:52:37;;;;;;;40.22;19.50;;;7.60;72.60;;;;;;5053936;28;20180;-72
2023/04/06 17:55:03;;;;;;;21.85;13.48;;;7.50;74.90;;;;;;5057103;28;20192;-73
2023/04/06 17:57:32;;;;;;;20.00;13.05;;;7.50;75.90;;;;;;5058305;28;20200;-73
2023/04/06 18:00:05;;;;;;;18.65;11.13;;;7.40;76.70;;;;;;5058709;28;20165;-73
2023/04/06 18:02:32;;;;;;;17.17;11.20;;;7.30;76.80;;;;;;5057694;28;20212;-73
2023/04/06 18:05:17;;;;;;;19.05;15.15;;;7.20;77.00;;;;;;5074547;28;20178;-73
2023/04/06 18:07:42;;;;;;;18.45;14.88;;;7.10;76.40;;;;;;5057480;28;20554;-74
2023/04/06 18:10:09;;;;;;;17.55;12.23;;;7.10;76.60;;;;;;5057461;28;20170;-73
2023/04/06 18:12:34;;;;;;;15.00;11.27;;;7.00;75.70;;;;;;5057089;28;20182;-73
2023/04/06 18:15:00;;;;;;;21.88;11.10;;;6.90;77.30;;;;;;5075553;28;20174;-73
2023/04/06 18:17:25;;;;;;;20.90;10.68;;;6.80;78.30;;;;;;5057429;28;20197;-73
2023/04/06 18:19:51;;;;;;;16.75;10.77;;;6.70;78.60;;;;;;5074608;28;20199;-74
2023/04/06 18:22:17;;;;;;;16.98;11.00;;;6.60;78.80;;;;;;5057437;28;20593;-73
2023/04/06 18:24:43;;;;;;;14.00;10.30;;;6.60;78.90;;;;;;5057711;28;20208;-74
2023/04/06 18:27:09;;;;;;;17.02;11.05;;;6.50;79.20;;;;;;5057652;28;20198;-73
2023/04/06 18:29:35;;;;;;;21.90;10.55;;;6.50;79.20;;;;;;5059167;28;20173;-73
2023/04/06 18:32:13;;;;;;;16.75;10.05;;;6.40;79.40;;;;;;5079119;28;20181;-73
2023/04/06 18:34:38;;;;;;;14.80;10.57;;;6.40;80.00;;;;;;5077575;28;20537;-73
2023/04/06 18:37:04;;;;;;;18.50;10.63;;;6.30;80.00;;;;;;5077285;28;20293;-73
2023/04/06 18:39:30;;;;;;;13.48;11.45;;;6.30;79.80;;;;;;5079360;28;20181;-73
2023/04/06 18:41:55;;;;;;;19.35;11.82;;;6.30;79.80;;;;;;5061274;28;20205;-73
2023/04/06 18:44:21;;;;;;;13.82;11.13;;;6.30;80.20;;;;;;5061121;28;20216;-74
2023/04/06 18:46:46;;;;;;;14.82;11.32;;;6.20;80.40;;;;;;5061078;28;20194;-73
2023/04/06 18:49:12;;;;;;;13.95;11.40;;;6.30;79.80;;;;;;5061816;28;20204;-73
2023/04/06 18:51:48;;;;;;;15.75;10.85;;;6.30;80.20;;;;;;5078048;28;20173;-73
2023/04/06 18:54:20;;;;;;;13.60;11.25;;;6.20;80.70;;;;;;5078404;28;20173;-73
2023/04/06 18:56:47;;;;;;;16.58;11.98;;;6.10;80.90;;;;;;5060855;28;20193;-73
2023/04/06 18:59:12;;;;;;;15.77;11.52;;;6.10;81.30;;;;;;5060980;28;20307;-73
2023/04/06 19:01:42;;;;;;;15.90;11.18;;;6.00;81.90;;;;;;5077512;28;20217;-73
2023/04/06 19:04:08;;;;;;;16.63;11.70;;;6.00;82.00;;;;;;5061133;28;20204;-73
2023/04/06 19:06:33;;;;;;;16.30;10.73;;;6.00;82.50;;;;;;5061271;28;20197;-73
2023/04/06 19:08:59;;;;;;;13.15;11.65;;;5.90;82.50;;;;;;5061755;28;20173;-73
2023/04/06 19:11:26;;;;;;;14.13;11.48;;;6.00;81.20;;;;;;5061784;28;20177;-73
2023/04/06 19:13:55;;;;;;;15.30;11.52;;;5.90;81.10;;;;;;5078440;28;20162;-73
2023/04/06 19:16:25;;;;;;;15.68;11.80;;;5.90;81.30;;;;;;5078415;28;20213;-73
2023/04/06 19:19:05;;;;;;;20.58;13.40;;;5.90;81.30;;;;;;5061375;28;20173;-74
2023/04/06 19:21:37;;;;;;;16.58;12.90;;;5.80;81.30;;;;;;5060772;28;20601;-73